createdAt,value
2022-07-25T00:01:51.888Z,83.10
2022-07-25T00:04:40.534Z,84.00
2022-07-25T00:07:30.888Z,83.50
2022-07-25T00:10:19.194Z,83.50
2022-07-25T00:13:07.374Z,83.50
2022-07-25T00:15:56.959Z,84.00
2022-07-25T00:18:45.369Z,84.00
2022-07-25T00:21:33.571Z,84.50
2022-07-25T00:24:21.758Z,84.40
2022-07-25T00:27:09.960Z,84.90
2022-07-25T00:29:58.125Z,84.70
2022-07-25T00:32:47.680Z,85.00
2022-07-25T00:35:35.968Z,84.20
2022-07-25T00:38:24.169Z,85.00
2022-07-25T00:41:12.400Z,86.10
2022-07-25T00:44:00.614Z,86.70
2022-07-25T00:46:48.848Z,86.10
2022-07-25T00:49:38.409Z,85.60
2022-07-25T00:52:26.810Z,85.40
2022-07-25T00:55:16.686Z,85.90
2022-07-25T00:58:04.879Z,87.00
2022-07-25T01:00:53.100Z,86.90
2022-07-25T01:03:41.383Z,85.70
2022-07-25T01:06:31.312Z,87.50
2022-07-25T01:09:19.935Z,87.50
2022-07-25T01:12:08.515Z,88.00
2022-07-25T01:14:59.139Z,88.10
2022-07-25T01:17:47.430Z,88.70
2022-07-25T01:20:37.005Z,88.70
2022-07-25T01:23:25.185Z,89.70
2022-07-25T01:26:13.370Z,88.40
2022-07-25T01:29:01.578Z,89.50
2022-07-25T01:31:49.751Z,89.20
2022-07-25T01:34:37.929Z,89.20
2022-07-25T01:37:27.471Z,88.70
2022-07-25T01:40:16.233Z,88.40
2022-07-25T01:43:04.631Z,89.90
2022-07-25T01:45:52.937Z,90.00
2022-07-25T01:48:42.742Z,88.90
2022-07-25T01:51:30.954Z,89.40
2022-07-25T01:54:20.550Z,89.50
2022-07-25T01:57:10.369Z,89.90
2022-07-25T02:00:00.282Z,89.90
2022-07-25T02:02:48.569Z,89.60
2022-07-25T02:05:36.770Z,90.10
2022-07-25T02:08:24.934Z,89.80
2022-07-25T02:11:14.454Z,89.70
2022-07-25T02:14:02.821Z,89.30
2022-07-25T02:16:51.503Z,89.60
2022-07-25T02:19:39.737Z,89.30
2022-07-25T02:22:27.931Z,89.50
2022-07-25T02:25:16.104Z,90.00
2022-07-25T02:28:06.253Z,89.80
2022-07-25T02:30:54.579Z,90.30
2022-07-25T02:33:42.903Z,90.60
2022-07-25T02:36:31.151Z,90.40
2022-07-25T02:39:19.357Z,90.40
2022-07-25T02:42:07.804Z,90.40
2022-07-25T02:44:57.320Z,90.70
2022-07-25T02:47:45.684Z,90.50
2022-07-25T02:50:33.920Z,90.60
2022-07-25T02:53:40.265Z,90.90
2022-07-25T02:56:32.060Z,90.50
2022-07-25T02:59:20.381Z,90.80
2022-07-25T03:02:09.891Z,90.70
2022-07-25T03:04:58.257Z,91.10
2022-07-25T03:07:46.855Z,91.10
2022-07-25T03:10:36.385Z,91.20
2022-07-25T03:13:24.681Z,91.60
2022-07-25T03:16:12.990Z,91.20
2022-07-25T03:19:02.505Z,91.50
2022-07-25T03:21:50.730Z,91.80
2022-07-25T03:24:38.929Z,91.70
2022-07-25T03:27:27.276Z,92.00
2022-07-25T03:30:15.538Z,92.30
2022-07-25T03:33:03.813Z,92.10
2022-07-25T03:35:53.331Z,92.00
2022-07-25T03:38:41.957Z,92.30
2022-07-25T03:41:30.178Z,92.10
2022-07-25T03:44:18.611Z,92.30
2022-07-25T03:47:07.165Z,92.20
2022-07-25T03:49:55.366Z,93.10
2022-07-25T03:52:44.850Z,93.70
2022-07-25T03:55:33.003Z,93.30
2022-07-25T03:58:21.176Z,93.00
2022-07-25T04:01:09.372Z,93.00
2022-07-25T04:03:59.169Z,93.00
2022-07-25T04:06:47.762Z,92.90
2022-07-25T04:09:37.286Z,93.30
2022-07-25T04:12:25.466Z,93.10
2022-07-25T04:15:13.740Z,93.50
2022-07-25T04:18:01.893Z,93.40
2022-07-25T04:20:51.009Z,93.70
2022-07-25T04:23:39.323Z,93.30
2022-07-25T04:26:28.860Z,93.40
2022-07-25T04:29:17.095Z,93.50
2022-07-25T04:32:06.190Z,93.50
2022-07-25T04:34:55.421Z,94.00
2022-07-25T04:37:43.582Z,93.80
2022-07-25T04:40:31.866Z,94.20
2022-07-25T04:43:23.066Z,94.20
2022-07-25T04:46:11.414Z,94.40
2022-07-25T04:48:59.826Z,94.30
2022-07-25T04:51:48.038Z,94.50
2022-07-25T04:54:36.248Z,94.40
2022-07-25T04:57:24.412Z,95.10
2022-07-25T05:00:15.615Z,94.50
2022-07-25T05:03:04.839Z,95.00
2022-07-25T05:05:53.034Z,95.00
2022-07-25T05:08:41.233Z,94.90
2022-07-25T05:11:29.840Z,95.00
2022-07-25T05:14:18.447Z,95.20
2022-07-25T05:17:10.464Z,95.30
2022-07-25T05:19:58.971Z,95.60
2022-07-25T05:22:47.244Z,95.10
2022-07-25T05:25:35.423Z,95.70
2022-07-25T05:28:23.591Z,95.60
2022-07-25T05:31:11.986Z,96.10
2022-07-25T05:34:01.547Z,95.70
2022-07-25T05:36:49.695Z,95.50
2022-07-25T05:39:40.248Z,95.60
2022-07-25T05:42:28.663Z,96.00
2022-07-25T05:45:16.864Z,96.00
2022-07-25T05:48:05.342Z,96.10
2022-07-25T05:50:54.833Z,96.20
2022-07-25T05:53:43.099Z,95.80
2022-07-25T05:56:31.418Z,96.30
2022-07-25T05:59:19.638Z,95.80
2022-07-25T06:02:08.005Z,95.50
2022-07-25T06:04:56.388Z,95.30
2022-07-25T06:07:45.893Z,95.60
2022-07-25T06:10:34.126Z,95.50
2022-07-25T06:13:23.928Z,95.20
2022-07-25T06:16:12.321Z,95.20
2022-07-25T06:19:00.558Z,95.30
2022-07-25T06:21:48.703Z,95.40
2022-07-25T06:24:38.353Z,95.20
2022-07-25T06:27:29.424Z,95.10
2022-07-25T06:30:20.459Z,95.20
2022-07-25T06:33:09.198Z,95.10
2022-07-25T06:35:57.732Z,95.00
2022-07-25T06:38:45.951Z,95.40
2022-07-25T06:41:36.824Z,94.90
2022-07-25T06:44:25.018Z,95.00
2022-07-25T06:47:13.554Z,95.00
2022-07-25T06:50:01.764Z,94.60
2022-07-25T06:52:50.355Z,94.80
2022-07-25T06:55:38.834Z,94.50
2022-07-25T06:58:28.783Z,94.30
2022-07-25T07:01:17.113Z,94.70
2022-07-25T07:04:06.709Z,94.50
2022-07-25T07:06:55.159Z,94.50
2022-07-25T07:09:43.565Z,94.10
2022-07-25T07:12:31.776Z,94.30
2022-07-25T07:15:21.495Z,93.60
2022-07-25T07:18:09.645Z,93.70
2022-07-25T07:20:57.927Z,94.00
2022-07-25T07:23:46.117Z,94.00
2022-07-25T07:26:36.148Z,93.90
2022-07-25T07:29:24.307Z,93.50
2022-07-25T07:32:13.896Z,93.50
2022-07-25T07:35:02.083Z,93.60
2022-07-25T07:37:50.286Z,93.40
2022-07-25T07:40:38.704Z,93.30
2022-07-25T07:43:30.051Z,93.20
2022-07-25T07:46:18.696Z,93.60
2022-07-25T07:49:08.516Z,93.30
2022-07-25T07:51:56.999Z,93.30
2022-07-25T07:55:02.995Z,92.90
2022-07-25T07:57:51.287Z,93.00
2022-07-25T08:00:40.215Z,92.20
2022-07-25T08:03:28.857Z,92.20
2022-07-25T08:06:18.398Z,92.10
2022-07-25T08:09:06.905Z,91.90
2022-07-25T08:11:55.200Z,91.90
2022-07-25T08:14:43.479Z,91.50
2022-07-25T08:17:31.708Z,91.40
2022-07-25T08:20:37.339Z,91.20
2022-07-25T08:23:28.703Z,91.00
2022-07-25T08:26:16.886Z,90.30
2022-07-25T08:29:18.828Z,90.60
2022-07-25T08:32:07.921Z,90.40
2022-07-25T08:34:56.362Z,90.70
2022-07-25T08:37:44.844Z,90.00
2022-07-25T08:40:35.349Z,89.90
2022-07-25T08:43:24.448Z,89.40
2022-07-25T08:46:13.090Z,89.40
2022-07-25T08:49:01.396Z,89.60
2022-07-25T08:51:51.618Z,87.60
2022-07-25T08:54:40.304Z,87.30
2022-07-25T08:57:30.481Z,87.60
2022-07-25T09:00:19.611Z,86.40
2022-07-25T09:03:08.294Z,86.80
2022-07-25T09:05:56.565Z,85.50
2022-07-25T09:08:53.178Z,83.70
2022-07-25T09:11:41.413Z,84.00
2022-07-25T09:14:31.070Z,85.60
2022-07-25T09:17:22.162Z,84.30
2022-07-25T09:20:16.607Z,82.00
2022-07-25T09:23:07.214Z,80.00
2022-07-25T09:26:03.300Z,80.90
2022-07-25T09:28:53.373Z,80.80
2022-07-25T09:31:43.050Z,76.90
2022-07-25T09:34:34.695Z,78.90
2022-07-25T09:37:28.122Z,77.90
2022-07-25T09:40:16.725Z,76.10
2022-07-25T09:43:05.302Z,74.40
2022-07-25T09:45:53.856Z,75.20
2022-07-25T09:48:46.367Z,73.90
2022-07-25T09:51:35.238Z,72.10
2022-07-25T09:54:24.096Z,73.60
2022-07-25T09:57:12.386Z,73.50
2022-07-25T10:00:01.404Z,72.70
2022-07-25T10:02:53.478Z,72.70
2022-07-25T10:05:52.018Z,71.00
2022-07-25T10:08:42.249Z,71.00
2022-07-25T10:11:31.463Z,72.10
2022-07-25T10:14:20.315Z,72.30
2022-07-25T10:17:08.769Z,70.80
2022-07-25T10:19:58.881Z,71.00
2022-07-25T10:22:57.321Z,71.20
2022-07-25T10:25:49.182Z,71.10
2022-07-25T10:28:39.756Z,70.10
2022-07-25T10:31:36.548Z,71.20
2022-07-25T10:34:30.653Z,70.60
2022-07-25T10:37:21.106Z,71.30
2022-07-25T10:40:12.311Z,71.40
2022-07-25T10:43:08.642Z,69.20
2022-07-25T10:46:00.800Z,70.40
2022-07-25T10:49:00.261Z,69.10
2022-07-25T10:51:56.976Z,70.00
2022-07-25T10:54:55.758Z,69.30
2022-07-25T10:58:07.895Z,68.70
2022-07-25T11:00:54.366Z,69.10
2022-07-25T11:03:45.055Z,68.40
2022-07-25T11:06:35.364Z,67.90
2022-07-25T11:09:27.992Z,67.60
2022-07-25T11:12:16.901Z,66.20
2022-07-25T11:15:08.795Z,67.20
2022-07-25T11:17:56.997Z,67.10
2022-07-25T11:20:45.396Z,67.40
2022-07-25T11:23:33.699Z,67.30
2022-07-25T11:26:21.956Z,68.00
2022-07-25T11:29:10.367Z,67.30
2022-07-25T11:32:01.357Z,67.20
2022-07-25T11:34:51.406Z,64.50
2022-07-25T11:37:41.908Z,65.70
2022-07-25T11:40:30.429Z,65.60
2022-07-25T11:43:21.692Z,67.20
2022-07-25T11:46:10.196Z,66.10
2022-07-25T11:49:08.876Z,66.90
2022-07-25T11:51:57.427Z,66.70
2022-07-25T11:54:55.104Z,65.30
2022-07-25T11:57:46.943Z,66.10
2022-07-25T12:00:36.586Z,64.80
2022-07-25T12:03:24.844Z,64.60
2022-07-25T12:06:14.574Z,65.90
2022-07-25T12:09:15.014Z,64.90
2022-07-25T12:12:07.015Z,64.00
2022-07-25T12:14:55.192Z,65.10
2022-07-25T12:17:44.324Z,64.40
2022-07-25T12:20:34.568Z,63.70
2022-07-25T12:23:24.122Z,63.50
2022-07-25T12:26:14.469Z,63.20
2022-07-25T12:29:02.852Z,63.20
2022-07-25T12:31:51.213Z,62.80
2022-07-25T12:34:39.625Z,62.90
2022-07-25T12:37:31.078Z,61.50
2022-07-25T12:40:21.513Z,61.30
2022-07-25T12:43:10.100Z,62.00
2022-07-25T12:45:58.504Z,62.30
2022-07-25T12:48:46.906Z,61.10
2022-07-25T12:51:35.115Z,59.20
2022-07-25T12:54:23.305Z,59.50
2022-07-25T12:57:14.224Z,59.50
2022-07-25T13:00:02.472Z,58.50
2022-07-25T13:02:53.170Z,58.60
2022-07-25T13:05:41.958Z,58.90
2022-07-25T13:08:30.147Z,58.00
2022-07-25T13:11:18.349Z,58.30
2022-07-25T13:14:07.950Z,58.00
2022-07-25T13:16:57.301Z,58.30
2022-07-25T13:19:45.644Z,58.30
2022-07-25T13:22:34.252Z,58.10
2022-07-25T13:25:28.121Z,59.00
2022-07-25T13:28:19.481Z,59.50
2022-07-25T13:31:10.706Z,59.30
2022-07-25T13:33:59.689Z,58.40
2022-07-25T13:36:48.859Z,60.20
2022-07-25T13:39:38.416Z,58.50
2022-07-25T13:42:26.644Z,57.60
2022-07-25T13:45:14.938Z,56.90
2022-07-25T13:48:28.465Z,57.60
2022-07-25T13:51:14.570Z,57.30
2022-07-25T13:54:03.603Z,56.60
2022-07-25T13:56:51.825Z,54.20
2022-07-25T13:59:40.714Z,55.00
2022-07-25T14:02:29.452Z,52.50
2022-07-25T14:05:19.184Z,52.90
2022-07-25T14:08:08.100Z,52.90
2022-07-25T14:10:56.296Z,53.60
2022-07-25T14:13:45.258Z,53.60
2022-07-25T14:16:34.439Z,54.70
2022-07-25T14:19:24.123Z,54.80
2022-07-25T14:22:13.695Z,53.70
2022-07-25T14:25:02.026Z,53.50
2022-07-25T14:27:50.255Z,53.10
2022-07-25T14:30:38.444Z,53.90
2022-07-25T14:33:26.678Z,54.50
2022-07-25T14:36:14.877Z,54.10
2022-07-25T14:39:05.638Z,54.90
2022-07-25T14:41:54.085Z,54.50
2022-07-25T14:44:43.344Z,54.20
2022-07-25T14:47:31.545Z,53.60
2022-07-25T14:50:19.738Z,52.90
2022-07-25T14:53:07.915Z,53.60
2022-07-25T14:55:57.411Z,53.60
2022-07-25T14:58:45.611Z,53.80
2022-07-25T15:01:34.077Z,54.30
2022-07-25T15:04:38.861Z,54.60
2022-07-25T15:07:27.454Z,54.80
2022-07-25T15:10:15.646Z,55.20
2022-07-25T15:13:29.849Z,55.00
2022-07-25T15:16:14.861Z,55.10
2022-07-25T15:19:16.408Z,55.40
2022-07-25T15:22:05.534Z,55.90
2022-07-25T15:25:27.530Z,56.30
2022-07-25T15:28:06.734Z,56.90
2022-07-25T15:30:55.025Z,57.50
2022-07-25T15:33:43.193Z,58.40
2022-07-25T15:36:33.125Z,62.40
2022-07-25T15:39:23.155Z,65.40
2022-07-25T15:42:11.352Z,65.60
2022-07-25T15:45:31.273Z,70.00
2022-07-25T15:48:11.524Z,74.30
2022-07-25T15:51:01.419Z,79.00
2022-07-25T15:53:49.610Z,81.80
2022-07-25T15:56:38.853Z,87.80
2022-07-25T15:59:27.060Z,89.80
2022-07-25T16:02:16.623Z,90.20
2022-07-25T16:05:05.642Z,92.10
2022-07-25T16:07:56.143Z,92.40
2022-07-25T16:10:44.307Z,93.60
2022-07-25T16:13:32.606Z,94.50
2022-07-25T16:16:22.318Z,94.00
2022-07-25T16:19:15.007Z,94.60
2022-07-25T16:22:03.230Z,93.20
2022-07-25T16:24:51.871Z,90.20
2022-07-25T16:27:40.102Z,89.90
2022-07-25T16:30:28.709Z,89.60
2022-07-25T16:33:17.033Z,89.60
2022-07-25T16:36:07.589Z,89.10
2022-07-25T16:38:55.797Z,89.50
2022-07-25T16:41:45.385Z,88.40
2022-07-25T16:44:33.923Z,90.00
2022-07-25T16:47:22.143Z,90.50
2022-07-25T16:50:10.505Z,88.30
2022-07-25T16:53:00.134Z,87.20
2022-07-25T16:55:48.328Z,84.70
2022-07-25T16:58:36.527Z,81.50
2022-07-25T17:01:26.612Z,79.80
2022-07-25T17:04:14.915Z,77.50
2022-07-25T17:07:03.207Z,77.20
2022-07-25T17:09:53.208Z,77.80
2022-07-25T17:12:41.404Z,78.10
2022-07-25T17:15:29.628Z,78.40
2022-07-25T17:18:18.349Z,75.60
2022-07-25T17:21:07.241Z,75.20
2022-07-25T17:23:56.478Z,74.80
2022-07-25T17:26:46.060Z,75.70
2022-07-25T17:29:35.719Z,76.20
2022-07-25T17:32:27.837Z,75.50
2022-07-25T17:35:18.089Z,75.50
2022-07-25T17:38:06.592Z,75.10
2022-07-25T17:40:55.898Z,75.10
2022-07-25T17:43:45.422Z,74.80
2022-07-25T17:46:33.695Z,75.30
2022-07-25T17:49:22.041Z,75.10
2022-07-25T17:52:12.203Z,75.00
2022-07-25T17:55:00.422Z,75.90
2022-07-25T17:57:52.943Z,77.60
2022-07-25T18:00:42.569Z,76.80
2022-07-25T18:03:31.667Z,77.70
2022-07-25T18:06:19.935Z,79.30
2022-07-25T18:09:08.581Z,79.70
2022-07-25T18:12:00.063Z,81.20
2022-07-25T18:14:48.326Z,81.50
2022-07-25T18:17:37.838Z,82.10
2022-07-25T18:20:28.058Z,83.20
2022-07-25T18:23:16.213Z,84.60
2022-07-25T18:26:04.598Z,85.30
2022-07-25T18:28:52.923Z,83.00
2022-07-25T18:31:41.175Z,83.60
2022-07-25T18:34:31.209Z,84.00
2022-07-25T18:37:19.404Z,85.50
2022-07-25T18:40:09.592Z,87.50
2022-07-25T18:42:57.653Z,90.00
2022-07-25T18:45:46.757Z,90.90
2022-07-25T18:48:35.968Z,91.30
2022-07-25T18:51:25.655Z,91.70
2022-07-25T18:54:14.257Z,92.50
2022-07-25T18:57:03.832Z,93.00
2022-07-25T18:59:52.080Z,93.60
2022-07-25T19:02:40.283Z,94.00
2022-07-25T19:05:28.619Z,94.40
2022-07-25T19:08:18.255Z,95.00
2022-07-25T19:11:06.850Z,95.40
2022-07-25T19:13:55.075Z,95.60
2022-07-25T19:16:46.004Z,95.80
2022-07-25T19:19:34.660Z,96.60
2022-07-25T19:22:22.865Z,97.00
2022-07-25T19:25:13.606Z,97.30
2022-07-25T19:28:02.052Z,97.60
2022-07-25T19:30:50.367Z,97.90
2022-07-25T19:33:38.889Z,98.20
2022-07-25T19:36:27.055Z,98.50
2022-07-25T19:39:17.437Z,99.90
2022-07-25T19:42:09.736Z,99.90
2022-07-25T19:44:58.374Z,99.90
2022-07-25T19:47:46.595Z,99.90
2022-07-25T19:50:34.831Z,99.90
2022-07-25T19:53:28.097Z,99.90
2022-07-25T19:56:16.697Z,99.90
2022-07-25T19:59:06.402Z,99.90
2022-07-25T20:01:55.355Z,99.90
2022-07-25T20:04:44.063Z,99.90
2022-07-25T20:07:32.317Z,99.90
2022-07-25T20:10:20.620Z,99.90
2022-07-25T20:13:08.857Z,99.90
2022-07-25T20:15:59.035Z,99.90
2022-07-25T20:18:47.291Z,99.90
2022-07-25T20:21:37.007Z,99.90
2022-07-25T20:24:25.160Z,99.90
2022-07-25T20:27:13.383Z,99.90
2022-07-25T20:30:03.686Z,99.90
2022-07-25T20:32:53.675Z,99.90
2022-07-25T20:35:41.862Z,99.90
2022-07-25T20:38:31.141Z,99.90
2022-07-25T20:41:19.295Z,99.90
2022-07-25T20:44:07.640Z,99.90
2022-07-25T20:46:55.831Z,99.90
2022-07-25T20:49:46.423Z,99.90
2022-07-25T20:52:34.612Z,99.90
2022-07-25T20:55:23.170Z,99.90
2022-07-25T20:58:11.384Z,99.90
2022-07-25T21:00:59.813Z,99.90
2022-07-25T21:03:47.996Z,99.90
2022-07-25T21:06:37.612Z,99.90
2022-07-25T21:09:29.637Z,99.90
2022-07-25T21:12:21.080Z,99.90
2022-07-25T21:15:10.054Z,99.90
2022-07-25T21:17:59.592Z,99.90
2022-07-25T21:20:47.943Z,99.90
2022-07-25T21:23:38.890Z,99.90
2022-07-25T21:26:27.412Z,99.90
2022-07-25T21:29:15.603Z,99.90
2022-07-25T21:32:04.523Z,99.90
2022-07-25T21:34:52.780Z,99.90
2022-07-25T21:37:41.009Z,99.90
2022-07-25T21:40:30.541Z,99.90
2022-07-25T21:43:19.687Z,99.90
2022-07-25T21:46:08.107Z,99.90
2022-07-25T21:49:14.425Z,99.90
2022-07-25T21:52:03.379Z,99.90
2022-07-25T21:54:51.881Z,99.90
2022-07-25T21:57:41.407Z,99.90
2022-07-25T22:00:33.148Z,99.90
2022-07-25T22:03:22.549Z,99.90
2022-07-25T22:06:11.154Z,99.90
2022-07-25T22:08:59.368Z,99.90
2022-07-25T22:11:47.589Z,99.90
2022-07-25T22:14:38.085Z,99.90
2022-07-25T22:17:26.334Z,99.90
2022-07-25T22:20:14.685Z,99.90
2022-07-25T22:23:03.003Z,99.90
2022-07-25T22:25:51.207Z,99.90
2022-07-25T22:28:39.457Z,99.90
2022-07-25T22:31:29.092Z,99.90
2022-07-25T22:34:17.347Z,99.90
2022-07-25T22:37:05.591Z,99.90
2022-07-25T22:39:57.732Z,99.90
2022-07-25T22:42:48.837Z,99.90
2022-07-25T22:45:42.583Z,99.90
2022-07-25T22:48:32.484Z,99.90
2022-07-25T22:51:20.721Z,99.90
2022-07-25T22:54:08.916Z,99.90
2022-07-25T22:56:57.727Z,99.90
2022-07-25T22:59:49.179Z,99.90
2022-07-25T23:02:37.514Z,99.90
2022-07-25T23:05:27.174Z,99.90
2022-07-25T23:08:15.329Z,99.90
2022-07-25T23:11:06.183Z,99.90
2022-07-25T23:13:54.528Z,99.90
2022-07-25T23:16:43.872Z,99.90
2022-07-25T23:19:32.080Z,99.90
2022-07-25T23:22:23.069Z,99.90
2022-07-25T23:25:11.736Z,99.90
2022-07-25T23:27:59.904Z,99.90
2022-07-25T23:30:48.500Z,99.90
2022-07-25T23:33:36.754Z,99.90
2022-07-25T23:36:24.927Z,99.90
2022-07-25T23:39:14.858Z,99.90
2022-07-25T23:42:03.400Z,99.90
2022-07-25T23:44:51.622Z,99.90
2022-07-25T23:47:40.717Z,99.90
2022-07-25T23:50:30.116Z,99.90
2022-07-25T23:53:18.369Z,99.90
2022-07-25T23:56:08.085Z,99.90
2022-07-25T23:58:56.328Z,99.90
